sensor_id;sensor_type;location;lat;lon;timestamp;P1;durP1;ratioP1;P2;durP2;ratioP2
17059;SDS011;8646;49.716;9.266;2022-09-09T00:02:54;12.30;;;2.60;;
17059;SDS011;8646;49.716;9.266;2022-09-09T00:06:06;14.60;;;2.40;;
17059;SDS011;8646;49.716;9.266;2022-09-09T00:09:18;4.20;;;1.67;;
17059;SDS011;8646;49.716;9.266;2022-09-09T00:12:25;3.67;;;1.50;;
17059;SDS011;8646;49.716;9.266;2022-09-09T00:15:35;5.90;;;1.70;;
17059;SDS011;8646;49.716;9.266;2022-09-09T00:18:48;7.30;;;1.50;;
17059;SDS011;8646;49.716;9.266;2022-09-09T00:21:58;3.17;;;1.47;;
17059;SDS011;8646;49.716;9.266;2022-09-09T00:25:15;4.43;;;1.60;;
17059;SDS011;8646;49.716;9.266;2022-09-09T00:28:26;8.33;;;1.90;;
17059;SDS011;8646;49.716;9.266;2022-09-09T00:31:31;6.37;;;1.80;;
17059;SDS011;8646;49.716;9.266;2022-09-09T00:34:35;7.53;;;2.30;;
17059;SDS011;8646;49.716;9.266;2022-09-09T00:37:42;6.43;;;2.00;;
17059;SDS011;8646;49.716;9.266;2022-09-09T00:40:48;13.20;;;2.80;;
17059;SDS011;8646;49.716;9.266;2022-09-09T00:43:56;19.93;;;4.30;;
17059;SDS011;8646;49.716;9.266;2022-09-09T00:47:04;16.90;;;4.53;;
17059;SDS011;8646;49.716;9.266;2022-09-09T00:50:28;11.23;;;3.30;;
17059;SDS011;8646;49.716;9.266;2022-09-09T00:53:39;6.60;;;2.30;;
17059;SDS011;8646;49.716;9.266;2022-09-09T00:57:01;9.00;;;1.97;;
17059;SDS011;8646;49.716;9.266;2022-09-09T01:00:17;11.73;;;2.60;;
17059;SDS011;8646;49.716;9.266;2022-09-09T01:03:25;8.47;;;2.40;;
17059;SDS011;8646;49.716;9.266;2022-09-09T01:06:37;5.07;;;1.97;;
17059;SDS011;8646;49.716;9.266;2022-09-09T01:09:42;6.93;;;2.03;;
17059;SDS011;8646;49.716;9.266;2022-09-09T01:12:53;3.53;;;1.53;;
17059;SDS011;8646;49.716;9.266;2022-09-09T01:16:02;12.33;;;2.23;;
17059;SDS011;8646;49.716;9.266;2022-09-09T01:19:07;7.67;;;1.87;;
17059;SDS011;8646;49.716;9.266;2022-09-09T01:22:28;5.63;;;1.93;;
17059;SDS011;8646;49.716;9.266;2022-09-09T01:29:20;14.30;;;2.90;;
17059;SDS011;8646;49.716;9.266;2022-09-09T01:32:37;13.37;;;3.03;;
17059;SDS011;8646;49.716;9.266;2022-09-09T01:35:43;8.50;;;2.43;;
17059;SDS011;8646;49.716;9.266;2022-09-09T01:38:52;8.17;;;2.00;;
17059;SDS011;8646;49.716;9.266;2022-09-09T01:41:56;11.03;;;1.80;;
17059;SDS011;8646;49.716;9.266;2022-09-09T01:45:04;10.40;;;2.90;;
17059;SDS011;8646;49.716;9.266;2022-09-09T01:48:08;10.83;;;1.80;;
17059;SDS011;8646;49.716;9.266;2022-09-09T01:51:11;6.43;;;1.90;;
17059;SDS011;8646;49.716;9.266;2022-09-09T01:54:14;2.77;;;1.40;;
17059;SDS011;8646;49.716;9.266;2022-09-09T01:57:18;2.43;;;1.30;;
17059;SDS011;8646;49.716;9.266;2022-09-09T02:00:26;5.87;;;2.23;;
17059;SDS011;8646;49.716;9.266;2022-09-09T02:03:32;13.77;;;3.10;;
17059;SDS011;8646;49.716;9.266;2022-09-09T02:06:38;15.43;;;3.50;;
17059;SDS011;8646;49.716;9.266;2022-09-09T02:09:43;8.50;;;2.37;;
17059;SDS011;8646;49.716;9.266;2022-09-09T02:12:51;3.83;;;1.50;;
17059;SDS011;8646;49.716;9.266;2022-09-09T02:16:00;4.43;;;1.40;;
17059;SDS011;8646;49.716;9.266;2022-09-09T02:19:09;2.47;;;1.40;;
17059;SDS011;8646;49.716;9.266;2022-09-09T02:22:15;5.03;;;1.50;;
17059;SDS011;8646;49.716;9.266;2022-09-09T02:25:23;7.10;;;1.50;;
17059;SDS011;8646;49.716;9.266;2022-09-09T02:28:29;3.90;;;1.67;;
17059;SDS011;8646;49.716;9.266;2022-09-09T02:31:37;6.07;;;1.80;;
17059;SDS011;8646;49.716;9.266;2022-09-09T02:34:42;4.20;;;1.50;;
17059;SDS011;8646;49.716;9.266;2022-09-09T02:37:49;3.77;;;1.53;;
17059;SDS011;8646;49.716;9.266;2022-09-09T02:40:55;4.47;;;1.80;;
17059;SDS011;8646;49.716;9.266;2022-09-09T02:43:59;7.30;;;1.80;;
17059;SDS011;8646;49.716;9.266;2022-09-09T02:47:08;3.70;;;1.83;;
17059;SDS011;8646;49.716;9.266;2022-09-09T02:50:25;8.30;;;2.03;;
17059;SDS011;8646;49.716;9.266;2022-09-09T02:53:37;9.83;;;2.07;;
17059;SDS011;8646;49.716;9.266;2022-09-09T02:56:49;6.87;;;2.13;;
17059;SDS011;8646;49.716;9.266;2022-09-09T02:59:56;9.07;;;2.33;;
17059;SDS011;8646;49.716;9.266;2022-09-09T03:03:01;8.27;;;2.10;;
17059;SDS011;8646;49.716;9.266;2022-09-09T03:06:05;12.33;;;2.60;;
17059;SDS011;8646;49.716;9.266;2022-09-09T03:09:08;20.03;;;3.77;;
17059;SDS011;8646;49.716;9.266;2022-09-09T03:12:12;11.30;;;2.63;;
17059;SDS011;8646;49.716;9.266;2022-09-09T03:15:15;15.30;;;2.83;;
17059;SDS011;8646;49.716;9.266;2022-09-09T03:18:20;7.17;;;2.10;;
17059;SDS011;8646;49.716;9.266;2022-09-09T03:21:22;6.20;;;1.40;;
17059;SDS011;8646;49.716;9.266;2022-09-09T03:24:26;7.37;;;2.10;;
17059;SDS011;8646;49.716;9.266;2022-09-09T03:27:28;4.30;;;1.80;;
17059;SDS011;8646;49.716;9.266;2022-09-09T03:30:31;5.43;;;1.60;;
17059;SDS011;8646;49.716;9.266;2022-09-09T03:33:36;9.27;;;1.90;;
17059;SDS011;8646;49.716;9.266;2022-09-09T03:36:38;17.17;;;3.27;;
17059;SDS011;8646;49.716;9.266;2022-09-09T03:39:42;20.90;;;4.23;;
17059;SDS011;8646;49.716;9.266;2022-09-09T03:42:46;15.77;;;3.93;;
17059;SDS011;8646;49.716;9.266;2022-09-09T03:45:49;17.70;;;3.67;;
17059;SDS011;8646;49.716;9.266;2022-09-09T03:48:54;24.43;;;5.03;;
17059;SDS011;8646;49.716;9.266;2022-09-09T03:51:58;17.17;;;3.97;;
17059;SDS011;8646;49.716;9.266;2022-09-09T03:55:02;12.93;;;3.07;;
17059;SDS011;8646;49.716;9.266;2022-09-09T03:58:05;7.93;;;2.03;;
17059;SDS011;8646;49.716;9.266;2022-09-09T04:01:09;10.83;;;2.20;;
17059;SDS011;8646;49.716;9.266;2022-09-09T04:04:16;3.67;;;1.97;;
17059;SDS011;8646;49.716;9.266;2022-09-09T04:07:18;7.07;;;1.70;;
17059;SDS011;8646;49.716;9.266;2022-09-09T04:10:22;4.60;;;1.80;;
17059;SDS011;8646;49.716;9.266;2022-09-09T04:13:25;7.63;;;2.03;;
17059;SDS011;8646;49.716;9.266;2022-09-09T04:16:28;5.40;;;1.90;;
17059;SDS011;8646;49.716;9.266;2022-09-09T04:19:33;3.13;;;1.57;;
17059;SDS011;8646;49.716;9.266;2022-09-09T04:22:35;8.13;;;2.13;;
17059;SDS011;8646;49.716;9.266;2022-09-09T04:25:43;15.73;;;3.70;;
17059;SDS011;8646;49.716;9.266;2022-09-09T04:28:48;13.80;;;3.23;;
17059;SDS011;8646;49.716;9.266;2022-09-09T04:31:51;14.33;;;3.47;;
17059;SDS011;8646;49.716;9.266;2022-09-09T04:34:56;9.50;;;1.90;;
17059;SDS011;8646;49.716;9.266;2022-09-09T04:37:59;21.90;;;3.20;;
17059;SDS011;8646;49.716;9.266;2022-09-09T04:41:04;11.73;;;3.67;;
17059;SDS011;8646;49.716;9.266;2022-09-09T04:44:08;13.27;;;3.43;;
17059;SDS011;8646;49.716;9.266;2022-09-09T04:47:11;15.70;;;3.13;;
17059;SDS011;8646;49.716;9.266;2022-09-09T04:50:17;8.03;;;2.57;;
17059;SDS011;8646;49.716;9.266;2022-09-09T04:53:20;8.53;;;2.23;;
17059;SDS011;8646;49.716;9.266;2022-09-09T04:56:24;6.30;;;1.63;;
17059;SDS011;8646;49.716;9.266;2022-09-09T04:59:28;20.53;;;3.97;;
17059;SDS011;8646;49.716;9.266;2022-09-09T05:02:31;25.10;;;5.30;;
17059;SDS011;8646;49.716;9.266;2022-09-09T05:05:35;23.93;;;4.57;;
17059;SDS011;8646;49.716;9.266;2022-09-09T05:08:40;7.37;;;2.00;;
17059;SDS011;8646;49.716;9.266;2022-09-09T05:11:44;5.83;;;2.00;;
17059;SDS011;8646;49.716;9.266;2022-09-09T05:14:47;7.23;;;3.17;;
17059;SDS011;8646;49.716;9.266;2022-09-09T05:17:50;14.80;;;2.40;;
17059;SDS011;8646;49.716;9.266;2022-09-09T05:20:59;17.27;;;3.47;;
17059;SDS011;8646;49.716;9.266;2022-09-09T05:24:03;21.13;;;4.10;;
17059;SDS011;8646;49.716;9.266;2022-09-09T05:27:06;17.07;;;3.73;;
17059;SDS011;8646;49.716;9.266;2022-09-09T05:30:09;21.97;;;4.17;;
17059;SDS011;8646;49.716;9.266;2022-09-09T05:33:12;28.03;;;4.33;;
17059;SDS011;8646;49.716;9.266;2022-09-09T05:36:17;18.33;;;3.83;;
17059;SDS011;8646;49.716;9.266;2022-09-09T05:39:21;20.43;;;3.90;;
17059;SDS011;8646;49.716;9.266;2022-09-09T05:42:24;15.13;;;3.23;;
17059;SDS011;8646;49.716;9.266;2022-09-09T05:45:27;14.93;;;2.93;;
17059;SDS011;8646;49.716;9.266;2022-09-09T05:48:31;14.40;;;3.00;;
17059;SDS011;8646;49.716;9.266;2022-09-09T05:51:36;9.27;;;2.17;;
17059;SDS011;8646;49.716;9.266;2022-09-09T05:54:40;9.43;;;1.73;;
17059;SDS011;8646;49.716;9.266;2022-09-09T05:57:47;4.60;;;1.73;;
17059;SDS011;8646;49.716;9.266;2022-09-09T06:00:51;4.57;;;1.37;;
17059;SDS011;8646;49.716;9.266;2022-09-09T06:03:53;5.80;;;1.80;;
17059;SDS011;8646;49.716;9.266;2022-09-09T06:06:58;3.77;;;1.30;;
17059;SDS011;8646;49.716;9.266;2022-09-09T06:10:01;4.73;;;1.83;;
17059;SDS011;8646;49.716;9.266;2022-09-09T06:13:04;6.47;;;2.03;;
17059;SDS011;8646;49.716;9.266;2022-09-09T06:16:07;6.07;;;1.33;;
17059;SDS011;8646;49.716;9.266;2022-09-09T06:19:13;5.33;;;1.30;;
17059;SDS011;8646;49.716;9.266;2022-09-09T06:22:17;7.87;;;1.93;;
17059;SDS011;8646;49.716;9.266;2022-09-09T06:25:20;11.03;;;1.67;;
17059;SDS011;8646;49.716;9.266;2022-09-09T06:28:23;12.67;;;2.37;;
17059;SDS011;8646;49.716;9.266;2022-09-09T06:31:27;10.20;;;2.27;;
17059;SDS011;8646;49.716;9.266;2022-09-09T06:34:52;4.43;;;1.40;;
17059;SDS011;8646;49.716;9.266;2022-09-09T06:37:57;7.77;;;1.03;;
17059;SDS011;8646;49.716;9.266;2022-09-09T06:40:59;2.37;;;0.60;;
17059;SDS011;8646;49.716;9.266;2022-09-09T06:44:03;2.73;;;0.70;;
17059;SDS011;8646;49.716;9.266;2022-09-09T06:47:06;2.70;;;0.63;;
17059;SDS011;8646;49.716;9.266;2022-09-09T06:50:09;3.50;;;0.60;;
17059;SDS011;8646;49.716;9.266;2022-09-09T06:53:13;1.30;;;0.50;;
17059;SDS011;8646;49.716;9.266;2022-09-09T06:56:22;2.43;;;0.70;;
17059;SDS011;8646;49.716;9.266;2022-09-09T06:59:26;4.77;;;0.80;;
17059;SDS011;8646;49.716;9.266;2022-09-09T07:02:29;3.97;;;0.70;;
17059;SDS011;8646;49.716;9.266;2022-09-09T07:05:32;4.20;;;0.57;;
17059;SDS011;8646;49.716;9.266;2022-09-09T07:08:36;2.93;;;0.60;;
17059;SDS011;8646;49.716;9.266;2022-09-09T07:11:40;3.00;;;0.70;;
17059;SDS011;8646;49.716;9.266;2022-09-09T07:14:44;1.90;;;0.70;;
17059;SDS011;8646;49.716;9.266;2022-09-09T07:17:47;4.03;;;0.60;;
17059;SDS011;8646;49.716;9.266;2022-09-09T07:20:53;3.33;;;0.70;;
17059;SDS011;8646;49.716;9.266;2022-09-09T07:23:58;2.77;;;0.47;;
17059;SDS011;8646;49.716;9.266;2022-09-09T07:27:02;2.87;;;0.60;;
17059;SDS011;8646;49.716;9.266;2022-09-09T07:30:06;5.03;;;1.00;;
17059;SDS011;8646;49.716;9.266;2022-09-09T07:33:09;2.53;;;0.70;;
17059;SDS011;8646;49.716;9.266;2022-09-09T07:36:13;4.20;;;0.60;;
17059;SDS011;8646;49.716;9.266;2022-09-09T07:39:18;4.47;;;0.90;;
17059;SDS011;8646;49.716;9.266;2022-09-09T07:42:21;6.83;;;0.80;;
17059;SDS011;8646;49.716;9.266;2022-09-09T07:45:24;6.67;;;1.07;;
17059;SDS011;8646;49.716;9.266;2022-09-09T07:48:29;3.63;;;0.80;;
17059;SDS011;8646;49.716;9.266;2022-09-09T07:51:32;4.00;;;0.90;;
17059;SDS011;8646;49.716;9.266;2022-09-09T07:54:40;4.50;;;0.70;;
17059;SDS011;8646;49.716;9.266;2022-09-09T07:57:43;8.03;;;1.00;;
17059;SDS011;8646;49.716;9.266;2022-09-09T08:00:46;7.60;;;1.10;;
17059;SDS011;8646;49.716;9.266;2022-09-09T08:03:52;3.60;;;0.87;;
17059;SDS011;8646;49.716;9.266;2022-09-09T08:06:57;6.37;;;1.10;;
17059;SDS011;8646;49.716;9.266;2022-09-09T08:10:04;6.97;;;0.80;;
17059;SDS011;8646;49.716;9.266;2022-09-09T08:13:08;2.47;;;0.87;;
17059;SDS011;8646;49.716;9.266;2022-09-09T08:16:19;8.37;;;1.20;;
17059;SDS011;8646;49.716;9.266;2022-09-09T08:19:24;2.63;;;0.87;;
17059;SDS011;8646;49.716;9.266;2022-09-09T08:22:26;5.33;;;0.90;;
17059;SDS011;8646;49.716;9.266;2022-09-09T08:25:30;7.93;;;1.20;;
17059;SDS011;8646;49.716;9.266;2022-09-09T08:28:35;4.13;;;0.93;;
17059;SDS011;8646;49.716;9.266;2022-09-09T08:31:39;4.57;;;1.03;;
17059;SDS011;8646;49.716;9.266;2022-09-09T08:34:44;5.43;;;0.90;;
17059;SDS011;8646;49.716;9.266;2022-09-09T08:37:48;4.60;;;0.90;;
17059;SDS011;8646;49.716;9.266;2022-09-09T08:40:53;4.07;;;0.90;;
17059;SDS011;8646;49.716;9.266;2022-09-09T08:44:07;6.33;;;1.17;;
17059;SDS011;8646;49.716;9.266;2022-09-09T08:47:23;6.87;;;1.43;;
17059;SDS011;8646;49.716;9.266;2022-09-09T08:50:35;4.50;;;0.90;;
17059;SDS011;8646;49.716;9.266;2022-09-09T08:53:42;4.00;;;0.67;;
17059;SDS011;8646;49.716;9.266;2022-09-09T08:56:51;3.47;;;0.97;;
17059;SDS011;8646;49.716;9.266;2022-09-09T08:59:54;5.50;;;1.00;;
17059;SDS011;8646;49.716;9.266;2022-09-09T09:03:00;7.50;;;1.40;;
17059;SDS011;8646;49.716;9.266;2022-09-09T09:06:17;5.00;;;1.00;;
17059;SDS011;8646;49.716;9.266;2022-09-09T09:09:30;5.83;;;1.10;;
17059;SDS011;8646;49.716;9.266;2022-09-09T09:12:41;5.10;;;1.00;;
17059;SDS011;8646;49.716;9.266;2022-09-09T09:15:50;5.77;;;1.00;;
17059;SDS011;8646;49.716;9.266;2022-09-09T09:18:58;6.53;;;1.00;;
17059;SDS011;8646;49.716;9.266;2022-09-09T09:22:01;6.10;;;0.90;;
17059;SDS011;8646;49.716;9.266;2022-09-09T09:25:10;7.43;;;1.20;;
17059;SDS011;8646;49.716;9.266;2022-09-09T09:28:21;3.03;;;0.90;;
17059;SDS011;8646;49.716;9.266;2022-09-09T09:31:27;8.77;;;1.10;;
17059;SDS011;8646;49.716;9.266;2022-09-09T09:34:30;4.33;;;0.87;;
17059;SDS011;8646;49.716;9.266;2022-09-09T09:37:33;9.30;;;1.40;;
17059;SDS011;8646;49.716;9.266;2022-09-09T09:40:47;9.07;;;1.40;;
17059;SDS011;8646;49.716;9.266;2022-09-09T09:43:54;5.67;;;1.17;;
17059;SDS011;8646;49.716;9.266;2022-09-09T09:47:05;4.90;;;1.00;;
17059;SDS011;8646;49.716;9.266;2022-09-09T09:50:16;6.10;;;0.90;;
17059;SDS011;8646;49.716;9.266;2022-09-09T09:53:20;3.60;;;0.70;;
17059;SDS011;8646;49.716;9.266;2022-09-09T09:56:26;3.97;;;0.80;;
17059;SDS011;8646;49.716;9.266;2022-09-09T09:59:35;2.67;;;0.77;;
17059;SDS011;8646;49.716;9.266;2022-09-09T10:02:41;5.67;;;1.20;;
17059;SDS011;8646;49.716;9.266;2022-09-09T10:05:45;3.07;;;1.17;;
17059;SDS011;8646;49.716;9.266;2022-09-09T10:08:48;3.17;;;1.10;;
17059;SDS011;8646;49.716;9.266;2022-09-09T10:11:55;4.50;;;0.53;;
17059;SDS011;8646;49.716;9.266;2022-09-09T10:15:10;3.77;;;0.67;;
17059;SDS011;8646;49.716;9.266;2022-09-09T10:21:54;3.53;;;0.50;;
17059;SDS011;8646;49.716;9.266;2022-09-09T10:25:08;3.00;;;0.60;;
17059;SDS011;8646;49.716;9.266;2022-09-09T10:28:25;3.60;;;0.70;;
17059;SDS011;8646;49.716;9.266;2022-09-09T10:31:41;3.77;;;0.60;;
17059;SDS011;8646;49.716;9.266;2022-09-09T10:35:01;4.03;;;0.80;;
17059;SDS011;8646;49.716;9.266;2022-09-09T10:38:13;4.60;;;0.60;;
17059;SDS011;8646;49.716;9.266;2022-09-09T10:41:24;2.73;;;0.73;;
17059;SDS011;8646;49.716;9.266;2022-09-09T10:44:44;4.37;;;0.90;;
17059;SDS011;8646;49.716;9.266;2022-09-09T10:48:08;4.97;;;0.70;;
17059;SDS011;8646;49.716;9.266;2022-09-09T10:51:22;8.27;;;1.17;;
17059;SDS011;8646;49.716;9.266;2022-09-09T10:54:31;4.23;;;0.80;;
17059;SDS011;8646;49.716;9.266;2022-09-09T10:57:49;4.77;;;0.90;;
17059;SDS011;8646;49.716;9.266;2022-09-09T11:00:54;3.83;;;0.80;;
17059;SDS011;8646;49.716;9.266;2022-09-09T11:04:03;4.80;;;0.93;;
17059;SDS011;8646;49.716;9.266;2022-09-09T11:07:18;3.10;;;0.70;;
17059;SDS011;8646;49.716;9.266;2022-09-09T11:10:29;4.03;;;0.70;;
17059;SDS011;8646;49.716;9.266;2022-09-09T11:13:42;2.57;;;0.80;;
17059;SDS011;8646;49.716;9.266;2022-09-09T11:16:53;6.60;;;1.10;;
17059;SDS011;8646;49.716;9.266;2022-09-09T11:20:02;3.67;;;0.73;;
17059;SDS011;8646;49.716;9.266;2022-09-09T11:23:09;5.00;;;1.03;;
17059;SDS011;8646;49.716;9.266;2022-09-09T11:26:18;5.60;;;1.00;;
17059;SDS011;8646;49.716;9.266;2022-09-09T11:33:20;5.57;;;1.20;;
17059;SDS011;8646;49.716;9.266;2022-09-09T11:40:08;2.77;;;0.70;;
17059;SDS011;8646;49.716;9.266;2022-09-09T11:43:20;5.40;;;0.87;;
17059;SDS011;8646;49.716;9.266;2022-09-09T11:46:31;8.90;;;1.10;;
17059;SDS011;8646;49.716;9.266;2022-09-09T11:49:39;2.63;;;0.80;;
17059;SDS011;8646;49.716;9.266;2022-09-09T11:52:46;5.20;;;0.90;;
17059;SDS011;8646;49.716;9.266;2022-09-09T11:56:04;4.00;;;0.67;;
17059;SDS011;8646;49.716;9.266;2022-09-09T11:59:19;2.93;;;0.80;;
17059;SDS011;8646;49.716;9.266;2022-09-09T12:02:23;3.77;;;0.90;;
17059;SDS011;8646;49.716;9.266;2022-09-09T12:05:35;2.67;;;0.80;;
17059;SDS011;8646;49.716;9.266;2022-09-09T12:08:43;5.30;;;0.67;;
17059;SDS011;8646;49.716;9.266;2022-09-09T12:11:49;2.10;;;0.57;;
17059;SDS011;8646;49.716;9.266;2022-09-09T12:14:57;2.70;;;0.63;;
17059;SDS011;8646;49.716;9.266;2022-09-09T12:18:21;3.57;;;0.83;;
17059;SDS011;8646;49.716;9.266;2022-09-09T12:21:28;3.00;;;0.93;;
17059;SDS011;8646;49.716;9.266;2022-09-09T12:24:45;5.60;;;1.00;;
17059;SDS011;8646;49.716;9.266;2022-09-09T12:28:00;2.47;;;0.70;;
17059;SDS011;8646;49.716;9.266;2022-09-09T12:31:08;3.33;;;0.70;;
17059;SDS011;8646;49.716;9.266;2022-09-09T12:34:24;4.37;;;0.80;;
17059;SDS011;8646;49.716;9.266;2022-09-09T12:37:34;7.30;;;0.87;;
17059;SDS011;8646;49.716;9.266;2022-09-09T12:40:40;2.50;;;0.67;;
17059;SDS011;8646;49.716;9.266;2022-09-09T12:43:45;5.43;;;0.90;;
17059;SDS011;8646;49.716;9.266;2022-09-09T12:46:48;3.33;;;0.80;;
17059;SDS011;8646;49.716;9.266;2022-09-09T12:49:52;5.17;;;0.80;;
17059;SDS011;8646;49.716;9.266;2022-09-09T12:52:59;16.50;;;1.60;;
17059;SDS011;8646;49.716;9.266;2022-09-09T12:56:08;5.30;;;0.70;;
17059;SDS011;8646;49.716;9.266;2022-09-09T12:59:22;3.20;;;0.80;;
17059;SDS011;8646;49.716;9.266;2022-09-09T13:02:27;6.70;;;1.03;;
17059;SDS011;8646;49.716;9.266;2022-09-09T13:05:34;9.37;;;0.93;;
17059;SDS011;8646;49.716;9.266;2022-09-09T13:08:38;4.30;;;0.83;;
17059;SDS011;8646;49.716;9.266;2022-09-09T13:11:46;3.10;;;0.70;;
17059;SDS011;8646;49.716;9.266;2022-09-09T13:14:53;4.80;;;0.80;;
17059;SDS011;8646;49.716;9.266;2022-09-09T13:17:58;6.87;;;0.60;;
17059;SDS011;8646;49.716;9.266;2022-09-09T13:21:06;4.60;;;0.80;;
17059;SDS011;8646;49.716;9.266;2022-09-09T13:24:21;5.17;;;0.80;;
17059;SDS011;8646;49.716;9.266;2022-09-09T13:27:31;3.87;;;0.90;;
17059;SDS011;8646;49.716;9.266;2022-09-09T13:30:36;5.80;;;1.00;;
17059;SDS011;8646;49.716;9.266;2022-09-09T13:33:42;5.43;;;1.00;;
17059;SDS011;8646;49.716;9.266;2022-09-09T13:36:46;3.93;;;0.93;;
17059;SDS011;8646;49.716;9.266;2022-09-09T13:39:51;8.47;;;0.70;;
17059;SDS011;8646;49.716;9.266;2022-09-09T13:42:56;4.97;;;0.63;;
17059;SDS011;8646;49.716;9.266;2022-09-09T13:46:01;5.80;;;0.90;;
17059;SDS011;8646;49.716;9.266;2022-09-09T13:49:18;3.60;;;0.67;;
17059;SDS011;8646;49.716;9.266;2022-09-09T13:52:23;2.23;;;0.57;;
17059;SDS011;8646;49.716;9.266;2022-09-09T13:55:27;4.40;;;0.70;;
17059;SDS011;8646;49.716;9.266;2022-09-09T13:58:33;2.70;;;0.50;;
17059;SDS011;8646;49.716;9.266;2022-09-09T14:01:36;7.53;;;1.10;;
17059;SDS011;8646;49.716;9.266;2022-09-09T14:04:39;3.33;;;0.60;;
17059;SDS011;8646;49.716;9.266;2022-09-09T14:07:43;2.67;;;0.60;;
17059;SDS011;8646;49.716;9.266;2022-09-09T14:10:52;4.50;;;0.80;;
17059;SDS011;8646;49.716;9.266;2022-09-09T14:13:58;3.70;;;0.60;;
17059;SDS011;8646;49.716;9.266;2022-09-09T14:17:02;3.07;;;0.70;;
17059;SDS011;8646;49.716;9.266;2022-09-09T14:20:09;2.30;;;0.50;;
17059;SDS011;8646;49.716;9.266;2022-09-09T14:23:13;5.07;;;0.60;;
17059;SDS011;8646;49.716;9.266;2022-09-09T14:26:16;2.43;;;0.60;;
17059;SDS011;8646;49.716;9.266;2022-09-09T14:29:21;3.97;;;0.83;;
17059;SDS011;8646;49.716;9.266;2022-09-09T14:32:26;4.37;;;0.67;;
17059;SDS011;8646;49.716;9.266;2022-09-09T14:35:30;2.93;;;0.60;;
17059;SDS011;8646;49.716;9.266;2022-09-09T14:38:35;5.33;;;0.80;;
17059;SDS011;8646;49.716;9.266;2022-09-09T14:41:40;2.13;;;0.73;;
17059;SDS011;8646;49.716;9.266;2022-09-09T14:44:44;3.47;;;0.60;;
17059;SDS011;8646;49.716;9.266;2022-09-09T14:47:49;3.47;;;0.90;;
17059;SDS011;8646;49.716;9.266;2022-09-09T14:50:51;5.73;;;1.10;;
17059;SDS011;8646;49.716;9.266;2022-09-09T14:53:55;2.40;;;0.93;;
17059;SDS011;8646;49.716;9.266;2022-09-09T14:56:59;2.97;;;0.90;;
17059;SDS011;8646;49.716;9.266;2022-09-09T15:00:03;3.07;;;0.70;;
17059;SDS011;8646;49.716;9.266;2022-09-09T15:03:07;2.67;;;0.60;;
17059;SDS011;8646;49.716;9.266;2022-09-09T15:06:11;3.47;;;1.00;;
17059;SDS011;8646;49.716;9.266;2022-09-09T15:09:15;2.43;;;0.80;;
17059;SDS011;8646;49.716;9.266;2022-09-09T15:12:18;3.17;;;0.60;;
17059;SDS011;8646;49.716;9.266;2022-09-09T15:15:23;2.00;;;0.60;;
17059;SDS011;8646;49.716;9.266;2022-09-09T15:18:25;2.70;;;0.50;;
17059;SDS011;8646;49.716;9.266;2022-09-09T15:21:29;2.30;;;0.40;;
17059;SDS011;8646;49.716;9.266;2022-09-09T15:24:33;2.47;;;0.50;;
17059;SDS011;8646;49.716;9.266;2022-09-09T15:27:36;2.70;;;0.47;;
17059;SDS011;8646;49.716;9.266;2022-09-09T15:30:41;4.03;;;0.60;;
17059;SDS011;8646;49.716;9.266;2022-09-09T15:33:46;0.90;;;0.43;;
17059;SDS011;8646;49.716;9.266;2022-09-09T15:36:50;2.10;;;0.53;;
17059;SDS011;8646;49.716;9.266;2022-09-09T15:39:53;5.10;;;0.73;;
17059;SDS011;8646;49.716;9.266;2022-09-09T15:42:56;3.70;;;0.53;;
17059;SDS011;8646;49.716;9.266;2022-09-09T15:46:02;2.00;;;0.50;;
17059;SDS011;8646;49.716;9.266;2022-09-09T15:49:25;4.53;;;0.70;;
17059;SDS011;8646;49.716;9.266;2022-09-09T15:52:29;1.63;;;0.70;;
17059;SDS011;8646;49.716;9.266;2022-09-09T15:55:31;2.50;;;0.60;;
17059;SDS011;8646;49.716;9.266;2022-09-09T15:58:34;1.23;;;0.57;;
17059;SDS011;8646;49.716;9.266;2022-09-09T16:01:39;2.43;;;0.70;;
17059;SDS011;8646;49.716;9.266;2022-09-09T16:04:43;2.93;;;0.50;;
17059;SDS011;8646;49.716;9.266;2022-09-09T16:07:46;3.90;;;0.67;;
17059;SDS011;8646;49.716;9.266;2022-09-09T16:10:49;1.90;;;0.60;;
17059;SDS011;8646;49.716;9.266;2022-09-09T16:13:52;3.23;;;0.60;;
17059;SDS011;8646;49.716;9.266;2022-09-09T16:16:57;3.27;;;0.70;;
17059;SDS011;8646;49.716;9.266;2022-09-09T16:20:01;5.13;;;0.83;;
17059;SDS011;8646;49.716;9.266;2022-09-09T16:23:04;3.20;;;0.67;;
17059;SDS011;8646;49.716;9.266;2022-09-09T16:26:08;3.63;;;0.60;;
17059;SDS011;8646;49.716;9.266;2022-09-09T16:29:13;8.30;;;0.90;;
17059;SDS011;8646;49.716;9.266;2022-09-09T16:32:18;3.17;;;0.73;;
17059;SDS011;8646;49.716;9.266;2022-09-09T16:35:21;2.47;;;0.73;;
17059;SDS011;8646;49.716;9.266;2022-09-09T16:38:24;3.67;;;0.70;;
17059;SDS011;8646;49.716;9.266;2022-09-09T16:41:27;5.03;;;1.07;;
17059;SDS011;8646;49.716;9.266;2022-09-09T16:44:31;2.70;;;0.90;;
17059;SDS011;8646;49.716;9.266;2022-09-09T16:47:35;3.60;;;0.80;;
17059;SDS011;8646;49.716;9.266;2022-09-09T16:50:38;5.87;;;0.90;;
17059;SDS011;8646;49.716;9.266;2022-09-09T16:53:41;3.50;;;0.80;;
17059;SDS011;8646;49.716;9.266;2022-09-09T16:56:46;3.00;;;0.70;;
17059;SDS011;8646;49.716;9.266;2022-09-09T16:59:50;2.50;;;0.87;;
17059;SDS011;8646;49.716;9.266;2022-09-09T17:02:56;1.27;;;0.60;;
17059;SDS011;8646;49.716;9.266;2022-09-09T17:06:00;3.70;;;0.70;;
17059;SDS011;8646;49.716;9.266;2022-09-09T17:09:04;1.73;;;0.50;;
17059;SDS011;8646;49.716;9.266;2022-09-09T17:12:08;3.07;;;0.43;;
17059;SDS011;8646;49.716;9.266;2022-09-09T17:15:13;3.40;;;0.40;;
17059;SDS011;8646;49.716;9.266;2022-09-09T17:18:17;0.90;;;0.37;;
17059;SDS011;8646;49.716;9.266;2022-09-09T17:21:21;2.90;;;0.60;;
17059;SDS011;8646;49.716;9.266;2022-09-09T17:24:27;1.47;;;0.50;;
17059;SDS011;8646;49.716;9.266;2022-09-09T17:27:30;1.90;;;0.57;;
17059;SDS011;8646;49.716;9.266;2022-09-09T17:30:34;4.03;;;0.70;;
17059;SDS011;8646;49.716;9.266;2022-09-09T17:33:39;2.67;;;0.70;;
17059;SDS011;8646;49.716;9.266;2022-09-09T17:36:44;2.63;;;0.50;;
17059;SDS011;8646;49.716;9.266;2022-09-09T17:39:47;2.17;;;0.77;;
17059;SDS011;8646;49.716;9.266;2022-09-09T17:42:50;3.80;;;0.60;;
17059;SDS011;8646;49.716;9.266;2022-09-09T17:45:53;2.80;;;0.53;;
17059;SDS011;8646;49.716;9.266;2022-09-09T17:48:58;4.10;;;0.80;;
17059;SDS011;8646;49.716;9.266;2022-09-09T17:52:02;2.03;;;0.60;;
17059;SDS011;8646;49.716;9.266;2022-09-09T17:55:05;3.37;;;0.70;;
17059;SDS011;8646;49.716;9.266;2022-09-09T17:58:10;5.53;;;1.60;;
17059;SDS011;8646;49.716;9.266;2022-09-09T18:01:14;3.23;;;0.73;;
17059;SDS011;8646;49.716;9.266;2022-09-09T18:04:20;5.33;;;1.20;;
17059;SDS011;8646;49.716;9.266;2022-09-09T18:07:23;3.80;;;0.73;;
17059;SDS011;8646;49.716;9.266;2022-09-09T18:10:26;9.43;;;0.90;;
17059;SDS011;8646;49.716;9.266;2022-09-09T18:13:29;1.87;;;0.80;;
17059;SDS011;8646;49.716;9.266;2022-09-09T18:16:32;3.70;;;0.80;;
17059;SDS011;8646;49.716;9.266;2022-09-09T18:19:37;5.43;;;1.00;;
17059;SDS011;8646;49.716;9.266;2022-09-09T18:22:41;3.80;;;0.80;;
17059;SDS011;8646;49.716;9.266;2022-09-09T18:25:44;4.73;;;0.90;;
17059;SDS011;8646;49.716;9.266;2022-09-09T18:28:47;2.50;;;0.80;;
17059;SDS011;8646;49.716;9.266;2022-09-09T18:31:51;2.80;;;0.73;;
17059;SDS011;8646;49.716;9.266;2022-09-09T18:34:56;3.53;;;1.00;;
17059;SDS011;8646;49.716;9.266;2022-09-09T18:37:59;3.53;;;0.83;;
17059;SDS011;8646;49.716;9.266;2022-09-09T18:41:11;4.07;;;0.73;;
17059;SDS011;8646;49.716;9.266;2022-09-09T18:44:16;1.57;;;0.77;;
17059;SDS011;8646;49.716;9.266;2022-09-09T18:47:21;2.33;;;0.70;;
17059;SDS011;8646;49.716;9.266;2022-09-09T18:50:26;3.47;;;0.83;;
17059;SDS011;8646;49.716;9.266;2022-09-09T18:53:29;7.47;;;1.00;;
17059;SDS011;8646;49.716;9.266;2022-09-09T18:56:32;4.37;;;1.00;;
17059;SDS011;8646;49.716;9.266;2022-09-09T18:59:36;4.77;;;1.00;;
17059;SDS011;8646;49.716;9.266;2022-09-09T19:02:39;4.13;;;0.90;;
17059;SDS011;8646;49.716;9.266;2022-09-09T19:05:43;3.20;;;1.07;;
17059;SDS011;8646;49.716;9.266;2022-09-09T19:08:46;2.83;;;0.97;;
17059;SDS011;8646;49.716;9.266;2022-09-09T19:11:55;4.83;;;0.90;;
17059;SDS011;8646;49.716;9.266;2022-09-09T19:15:00;2.97;;;0.80;;